Bay Harbor Islands, Florida
Current Conditions -  °F | °C
As of 8:03 AM on Thursday 23 Oct 2014 (Local Time) from KOPF Reporting Station
Light Rain Light Rain  
Wind Chill: 75°   Ceiling: 2600
Heat Index: 75°   Visibility: 10mi
Dew Point: 72°   Wind: 5mph
Humidity: 90%   Direction: 10°N
Pressure: 29.92"   Gusts: NA
Location:  25.882°N, 80.1292°W
Report Text: KOPF 231203Z 01004KT 10SM -RA SCT019 BKN026 BKN033 24/22 A2992 RMK AO2 P0000 T02390222
Loading
Personal Weather Stations






























Interactive Weather Map
Tropical Storm Tracking
New forecast layout! Learn more

10-Day Weather Forecast

Advertisements
Track Severe Weather on mobile